Spirit of St Louis Airport
KSUS : rendu visible

Aérodrome :











RETROUVEZ-NOUS SUR...

 
LOGIN :

S'inscrire | Disclaimer

   EN    FR    IT 

 









Légende :    VFR   VFR Marginal   IFR   IFR Intensif   IFR Très Intensif
Visi : 
Plafond : 
>= 8 km
>= 3000ft
5 à 8 km
1000 à 3000 ft
1500m à 5 km
500 à 1000 ft
800 à 1500m
200 à 500 ft
< 800m
< 200 ft
Symboles :   Orages  Brouillard  Fortes neiges  Fortes précipitations  Vent > 20 kt






- Altitude de l'aérodrome : 463 ft


KSUS - Spirit of St Louis

DERNIER METAR :
  • 221954Z 19010G17KT 10SM FEW045 29/17 A2991 RMK AO2 SLP123 T02940167

METARs EXPIRÉS :
  • 221854Z 17008G19KT 10SM FEW045 29/17 A2993 RMK AO2 SLP131 T02890167
  • 221754Z 19011G18KT 10SM CLR 28/17 A2996 RMK AO2 SLP139 60000 T02830167 10283 20111 58024

TAF KSUS
Valide du 22 à 18h jusqu'au 23 à 18h UTC


221736Z 2218/2318 18010G18KT P6SM FEW250
FM222300 17008KT P6SM SKC
FM231100 23006KT P6SM VCSH BKN100
FM231400 30010G16KT 6SM -SHRA BR OVC015
FIR KZKC / Amérique du Nord



MET'MAP, la Météo Aéronautique d'un coup d'oeil ! - Copyright ORBIFLY Décembre 2007 - Disclaimer

ORBIFLY MET'MAP TEAM :

Programmation & Développement : Alexandra Zaïnal
Sur une idée originale de : Baudouin d'Aumeries
Assistance à la programmation : Marc-Olivier Méhu
Soutien technique & logistique : Manuel Goepfert

Contact : metmap@orbifly.com




SOURCES & CREDITS :

   NOAA       Earth
Advisory